createdAt,value
2022-09-05T00:01:56.411Z,101493.63
2022-09-05T00:04:28.440Z,101492.31
2022-09-05T00:07:02.207Z,101484.81
2022-09-05T00:09:43.844Z,101485.31
2022-09-05T00:12:12.206Z,101485.72
2022-09-05T00:15:17.033Z,101485.41
2022-09-05T00:23:19.939Z,101482.38
2022-09-05T00:24:28.183Z,101481.69
2022-09-05T00:24:31.787Z,101482.66
2022-09-05T00:26:59.535Z,101485.16
2022-09-05T00:29:39.690Z,101473.22
2022-09-05T00:32:31.304Z,101481.34
2022-09-05T00:35:08.082Z,101476.00
2022-09-05T00:37:36.885Z,101479.38
2022-09-05T00:40:21.280Z,101483.00
2022-09-05T00:42:49.836Z,101479.72
2022-09-05T00:45:20.903Z,101477.56
2022-09-05T00:47:49.959Z,101473.81
2022-09-05T00:50:36.148Z,101473.31
2022-09-05T00:53:07.848Z,101468.03
2022-09-05T00:55:39.316Z,101468.03
2022-09-05T00:58:06.752Z,101467.31
2022-09-05T01:00:34.135Z,101464.41
2022-09-05T01:03:18.756Z,101469.97
2022-09-05T01:05:53.479Z,101462.13
2022-09-05T01:08:30.958Z,101467.00
2022-09-05T01:11:08.235Z,101466.06
2022-09-05T01:13:38.909Z,101456.88
2022-09-05T01:16:11.047Z,101461.28
2022-09-05T01:18:39.133Z,101460.38
2022-09-05T01:21:10.808Z,101457.38
2022-09-05T01:23:44.723Z,101455.91
2022-09-05T01:26:35.253Z,101455.16
2022-09-05T01:29:18.247Z,101454.94
2022-09-05T01:32:01.707Z,101463.28
2022-09-05T01:34:44.531Z,101457.81
2022-09-05T01:37:38.075Z,101461.16
2022-09-05T01:40:14.009Z,101449.75
2022-09-05T01:42:46.167Z,101452.03
2022-09-05T01:45:19.292Z,101457.22
2022-09-05T01:47:52.182Z,101450.44
2022-09-05T01:50:25.133Z,101446.91
2022-09-05T01:53:03.986Z,101442.78
2022-09-05T01:56:04.708Z,101448.53
2022-09-05T01:58:35.828Z,101441.59
2022-09-05T02:01:25.270Z,101445.06
2022-09-05T02:04:07.639Z,101441.44
2022-09-05T02:06:54.158Z,101435.50
2022-09-05T02:09:40.416Z,101428.06
2022-09-05T02:12:16.926Z,101431.38
2022-09-05T02:15:16.743Z,101431.38
2022-09-05T02:17:50.796Z,101430.34
2022-09-05T02:20:35.464Z,101426.97
2022-09-05T02:23:04.695Z,101421.63
2022-09-05T02:26:04.924Z,101425.44
2022-09-05T02:28:32.622Z,101436.03
2022-09-05T02:31:19.474Z,101428.00
2022-09-05T02:34:01.757Z,101428.00
2022-09-05T02:36:30.374Z,101428.06
2022-09-05T02:45:00.882Z,101434.03
2022-09-05T02:45:12.204Z,101432.28
2022-09-05T02:45:27.927Z,101440.00
2022-09-05T02:47:58.946Z,101434.09
2022-09-05T02:53:13.824Z,101439.56
2022-09-05T02:57:46.685Z,101442.22
2022-09-05T02:57:47.032Z,101444.31
2022-09-05T02:59:16.579Z,101444.66
2022-09-05T03:01:51.947Z,101445.59
2022-09-05T03:04:41.443Z,101449.31
2022-09-05T03:07:12.079Z,101445.22
2022-09-05T03:09:57.827Z,101453.44
2022-09-05T03:12:29.605Z,101444.72
2022-09-05T03:15:00.323Z,101443.53
2022-09-05T03:17:46.067Z,101439.44
2022-09-05T03:20:32.716Z,101447.22
2022-09-05T03:23:18.996Z,101445.81
2022-09-05T03:25:55.353Z,101441.06
2022-09-05T03:28:41.529Z,101444.53
2022-09-05T03:31:22.673Z,101447.06
2022-09-05T03:33:50.568Z,101451.00
2022-09-05T03:36:40.532Z,101443.06
2022-09-05T03:39:26.786Z,101451.22
2022-09-05T03:41:55.543Z,101444.16
2022-09-05T03:44:24.224Z,101453.44
2022-09-05T03:47:00.702Z,101453.09
2022-09-05T03:50:37.197Z,101454.78
2022-09-05T03:57:15.712Z,101455.41
2022-09-05T03:57:19.161Z,101456.50
2022-09-05T03:58:56.544Z,101461.63
2022-09-05T04:05:41.955Z,101461.63
2022-09-05T04:08:18.541Z,101463.06
2022-09-05T04:08:25.311Z,101460.66
2022-09-05T04:10:23.580Z,101464.16
2022-09-05T04:12:54.151Z,101464.78
2022-09-05T04:15:21.644Z,101468.06
2022-09-05T04:17:50.273Z,101470.72
2022-09-05T04:20:23.267Z,101464.56
2022-09-05T04:23:06.051Z,101476.75
2022-09-05T04:25:52.053Z,101479.91
2022-09-05T04:28:53.703Z,101482.06
2022-09-05T04:31:21.518Z,101476.97
2022-09-05T04:34:11.929Z,101484.66
2022-09-05T04:36:39.475Z,101482.38
2022-09-05T04:39:08.593Z,101488.38
2022-09-05T04:41:40.926Z,101488.47
2022-09-05T04:44:15.698Z,101485.88
2022-09-05T04:46:51.172Z,101488.06
2022-09-05T04:49:24.343Z,101483.13
2022-09-05T04:52:10.142Z,101487.19
2022-09-05T04:54:50.634Z,101487.31
2022-09-05T04:57:33.845Z,101490.94
2022-09-05T05:05:02.404Z,101483.47
2022-09-05T05:06:09.584Z,101481.88
2022-09-05T05:06:38.328Z,101477.78
2022-09-05T05:08:54.806Z,101474.94
2022-09-05T05:17:58.766Z,101486.84
2022-09-05T05:18:06.723Z,101478.31
2022-09-05T05:18:09.595Z,101476.94
2022-09-05T05:20:41.632Z,101477.16
2022-09-05T05:23:07.770Z,101473.22
2022-09-05T05:25:51.931Z,101470.09
2022-09-05T05:28:25.038Z,101481.59
2022-09-05T05:30:58.259Z,101480.28
2022-09-05T05:33:35.582Z,101485.88
2022-09-05T05:36:03.619Z,101488.66
2022-09-05T05:38:46.352Z,101482.66
2022-09-05T05:41:24.342Z,101492.38
2022-09-05T05:43:51.881Z,101488.88
2022-09-05T05:46:29.841Z,101488.78
2022-09-05T05:49:04.098Z,101485.88
2022-09-05T05:52:01.139Z,101484.97
2022-09-05T05:54:47.223Z,101490.38
2022-09-05T05:57:21.883Z,101489.34
2022-09-05T06:00:01.719Z,101490.06
2022-09-05T06:02:35.592Z,101495.56
2022-09-05T06:05:21.726Z,101495.41
2022-09-05T06:10:21.340Z,101495.38
2022-09-05T06:14:55.642Z,101503.38
2022-09-05T06:14:56.251Z,101495.31
2022-09-05T06:17:11.162Z,101494.06
2022-09-05T06:19:51.839Z,101495.06
2022-09-05T06:22:32.911Z,101492.16
2022-09-05T06:25:18.904Z,101491.41
2022-09-05T06:28:04.654Z,101496.03
2022-09-05T06:30:57.265Z,101495.88
2022-09-05T06:33:56.993Z,101498.41
2022-09-05T06:36:27.453Z,101500.34
2022-09-05T06:38:57.800Z,101502.53
2022-09-05T06:41:44.035Z,101499.59
2022-09-05T06:44:24.098Z,101507.06
2022-09-05T06:47:22.857Z,101503.50
2022-09-05T06:49:46.214Z,101501.84
2022-09-05T06:52:29.376Z,101491.53
2022-09-05T06:55:06.924Z,101496.88
2022-09-05T06:57:44.441Z,101495.31
2022-09-05T07:00:21.996Z,101498.63
2022-09-05T07:03:22.680Z,101492.50
2022-09-05T07:05:58.599Z,101489.19
2022-09-05T07:08:34.791Z,101493.97
2022-09-05T07:11:17.781Z,101496.78
2022-09-05T07:13:45.983Z,101496.78
2022-09-05T07:16:17.827Z,101495.09
2022-09-05T07:19:08.695Z,101490.94
2022-09-05T07:21:40.254Z,101496.81
2022-09-05T07:24:12.152Z,101492.19
2022-09-05T07:26:51.598Z,101482.53
2022-09-05T07:29:53.228Z,101475.72
2022-09-05T07:32:29.721Z,101465.34
2022-09-05T07:34:57.137Z,101455.75
2022-09-05T07:37:30.201Z,101456.38
2022-09-05T07:40:11.303Z,101455.75
2022-09-05T07:42:53.700Z,101459.44
2022-09-05T07:45:39.129Z,101460.53
2022-09-05T07:48:19.658Z,101453.97
2022-09-05T07:55:13.763Z,101458.47
2022-09-05T07:56:51.808Z,101452.16
2022-09-05T07:56:52.410Z,101446.94
2022-09-05T07:59:29.038Z,101446.81
2022-09-05T08:01:56.480Z,101443.09
2022-09-05T08:04:24.909Z,101439.81
2022-09-05T08:07:46.547Z,101444.16
2022-09-05T08:10:06.026Z,101444.16
2022-09-05T08:13:22.547Z,101441.50
2022-09-05T08:15:22.978Z,101438.25
2022-09-05T08:17:54.152Z,101435.56
2022-09-05T08:20:24.425Z,101430.19
2022-09-05T08:23:10.556Z,101424.06
2022-09-05T08:25:57.449Z,101419.13
2022-09-05T08:28:25.739Z,101420.25
2022-09-05T08:31:11.317Z,101424.50
2022-09-05T08:33:39.060Z,101423.78
2022-09-05T08:36:11.151Z,101412.94
2022-09-05T08:38:41.245Z,101416.56
2022-09-05T08:41:15.171Z,101413.16
2022-09-05T08:46:43.803Z,101409.75
2022-09-05T08:46:52.859Z,101412.25
2022-09-05T08:49:37.770Z,101410.53
2022-09-05T08:52:07.940Z,101407.16
2022-09-05T08:54:48.544Z,101403.19
2022-09-05T08:57:19.754Z,101398.94
2022-09-05T09:00:19.753Z,101396.16
2022-09-05T09:02:54.690Z,101395.13
2022-09-05T09:06:12.624Z,101391.00
2022-09-05T09:08:51.479Z,101388.84
2022-09-05T09:11:36.702Z,101383.59
2022-09-05T09:14:30.608Z,101380.97
2022-09-05T09:17:28.766Z,101379.09
2022-09-05T09:19:56.604Z,101381.84
2022-09-05T09:22:44.234Z,101371.78
2022-09-05T09:25:15.978Z,101373.97
2022-09-05T09:28:48.432Z,101366.16
2022-09-05T09:30:34.467Z,101371.00
2022-09-05T09:33:02.971Z,101364.44
2022-09-05T09:35:49.398Z,101362.63
2022-09-05T09:38:26.338Z,101356.25
2022-09-05T09:41:00.817Z,101357.97
2022-09-05T09:43:52.754Z,101350.34
2022-09-05T09:46:21.221Z,101354.19
2022-09-05T09:49:22.683Z,101354.13
2022-09-05T09:52:00.543Z,101352.97
2022-09-05T09:54:38.288Z,101349.34
2022-09-05T09:57:05.727Z,101347.91
2022-09-05T09:59:33.179Z,101341.00
2022-09-05T10:02:15.655Z,101335.91
2022-09-05T10:10:34.461Z,101330.72
2022-09-05T10:10:46.529Z,101332.88
2022-09-05T10:10:58.571Z,101319.22
2022-09-05T10:13:38.737Z,101319.69
2022-09-05T10:16:12.441Z,101317.31
2022-09-05T10:19:02.746Z,101324.59
2022-09-05T10:21:35.679Z,101319.84
2022-09-05T10:24:22.205Z,101312.03
2022-09-05T10:27:10.029Z,101314.63
2022-09-05T10:29:43.427Z,101319.84
2022-09-05T10:35:11.420Z,101319.19
2022-09-05T10:35:23.615Z,101315.25
2022-09-05T10:37:54.379Z,101326.22
2022-09-05T10:40:23.011Z,101318.22
2022-09-05T10:42:59.970Z,101307.56
2022-09-05T10:45:38.203Z,101308.09
2022-09-05T10:48:13.507Z,101302.34
2022-09-05T10:50:43.601Z,101302.91
2022-09-05T10:53:17.019Z,101304.94
2022-09-05T10:55:50.600Z,101295.03
2022-09-05T10:58:50.761Z,101290.94
2022-09-05T11:02:27.156Z,101291.72
2022-09-05T11:04:46.842Z,101294.84
2022-09-05T11:07:19.086Z,101287.59
2022-09-05T11:10:14.248Z,101281.41
2022-09-05T11:12:41.894Z,101285.56
2022-09-05T11:15:22.312Z,101279.38
2022-09-05T11:17:58.425Z,101268.38
2022-09-05T11:20:35.018Z,101266.97
2022-09-05T11:23:15.386Z,101269.88
2022-09-05T11:25:43.652Z,101269.19
2022-09-05T11:28:18.387Z,101262.69
2022-09-05T11:30:48.681Z,101259.91
2022-09-05T11:39:46.221Z,101245.50
2022-09-05T11:39:48.981Z,101246.19
2022-09-05T11:40:23.878Z,101243.88
2022-09-05T11:42:07.195Z,101248.88
2022-09-05T11:44:36.579Z,101245.94
2022-09-05T11:47:28.371Z,101236.19
2022-09-05T11:50:10.551Z,101240.75
2022-09-05T11:52:57.607Z,101238.13
2022-09-05T11:55:27.786Z,101227.59
2022-09-05T11:58:44.891Z,101227.59
2022-09-05T12:01:42.162Z,101218.69
2022-09-05T12:04:10.020Z,101222.19
2022-09-05T12:07:26.236Z,101225.47
2022-09-05T12:09:59.522Z,101217.81
2022-09-05T12:12:39.594Z,101210.25
2022-09-05T12:15:52.066Z,101216.25
2022-09-05T12:19:07.523Z,101210.94
2022-09-05T12:22:10.233Z,101208.22
2022-09-05T12:25:25.637Z,101201.06
2022-09-05T12:27:46.530Z,101201.84
2022-09-05T12:30:22.132Z,101213.06
2022-09-05T12:35:52.909Z,101213.19
2022-09-05T12:36:11.677Z,101202.97
2022-09-05T12:40:52.046Z,101197.09
2022-09-05T12:41:42.949Z,101201.38
2022-09-05T12:44:42.229Z,101201.50
2022-09-05T12:47:18.645Z,101201.22
2022-09-05T12:50:03.335Z,101196.91
2022-09-05T12:52:43.410Z,101193.69
2022-09-05T12:55:22.703Z,101192.56
2022-09-05T13:02:56.640Z,101182.28
2022-09-05T13:03:14.237Z,101182.09
2022-09-05T13:03:31.882Z,101176.13
2022-09-05T13:06:02.889Z,101182.09
2022-09-05T13:08:33.443Z,101183.75
2022-09-05T13:14:48.187Z,101182.22
2022-09-05T13:14:58.315Z,101174.91
2022-09-05T13:16:42.502Z,101176.06
2022-09-05T13:19:15.612Z,101179.06
2022-09-05T13:21:52.742Z,101169.28
2022-09-05T13:24:27.929Z,101165.81
2022-09-05T13:26:56.003Z,101169.59
2022-09-05T13:29:24.626Z,101172.03
2022-09-05T13:37:54.814Z,101160.59
2022-09-05T13:38:15.895Z,101159.78
2022-09-05T13:38:17.739Z,101165.91
2022-09-05T13:40:27.347Z,101162.75
2022-09-05T13:43:06.809Z,101160.69
2022-09-05T13:45:35.748Z,101164.91
2022-09-05T13:48:05.476Z,101161.19
2022-09-05T13:50:36.819Z,101155.81
2022-09-05T13:53:19.830Z,101163.19
2022-09-05T13:56:02.889Z,101163.13
2022-09-05T13:58:40.181Z,101164.03
2022-09-05T14:01:19.004Z,101162.28
2022-09-05T14:03:50.581Z,101159.00
2022-09-05T14:06:46.107Z,101148.09
2022-09-05T14:12:08.140Z,101155.78
2022-09-05T14:17:53.649Z,101164.25
2022-09-05T14:20:42.925Z,101158.63
2022-09-05T14:23:13.542Z,101154.22
2022-09-05T14:25:44.394Z,101146.50
2022-09-05T14:28:13.191Z,101155.69
2022-09-05T14:32:22.269Z,101157.50
2022-09-05T14:37:52.920Z,101150.94
2022-09-05T14:37:54.127Z,101139.28
2022-09-05T14:39:37.589Z,101150.72
2022-09-05T14:42:09.550Z,101164.50
2022-09-05T14:44:57.031Z,101158.59
2022-09-05T14:47:47.543Z,101167.25
2022-09-05T14:50:24.641Z,101158.16
2022-09-05T14:56:09.717Z,101159.78
2022-09-05T15:02:43.812Z,101154.78
2022-09-05T15:02:48.151Z,101153.63
2022-09-05T15:04:38.546Z,101160.75
2022-09-05T15:07:16.041Z,101160.38
2022-09-05T15:11:29.546Z,101155.16
2022-09-05T15:12:43.938Z,101141.59
2022-09-05T15:15:31.002Z,101152.63
2022-09-05T15:18:04.391Z,101155.53
2022-09-05T15:20:33.987Z,101147.22
2022-09-05T15:23:11.283Z,101143.00
2022-09-05T15:25:48.594Z,101149.38
2022-09-05T15:28:30.534Z,101201.91
2022-09-05T15:30:58.658Z,101203.41
2022-09-05T15:33:28.435Z,101192.91
2022-09-05T15:35:56.429Z,101198.28
2022-09-05T15:38:25.677Z,101198.66
2022-09-05T15:41:09.995Z,101201.31
2022-09-05T15:43:38.844Z,101208.97
2022-09-05T15:46:06.382Z,101200.94
2022-09-05T15:48:34.820Z,101214.47
2022-09-05T15:51:05.793Z,101199.38
2022-09-05T15:53:35.144Z,101200.81
2022-09-05T15:56:24.532Z,101206.22
2022-09-05T15:58:54.909Z,101213.84
2022-09-05T16:01:58.501Z,101215.41
2022-09-05T16:10:31.823Z,101229.81
2022-09-05T16:10:41.777Z,101225.16
2022-09-05T16:10:44.907Z,101227.81
2022-09-05T16:12:50.852Z,101223.34
2022-09-05T16:19:37.600Z,101209.25
2022-09-05T16:23:13.911Z,101215.88
2022-09-05T16:23:32.503Z,101203.41
2022-09-05T16:24:05.782Z,101204.34
2022-09-05T16:26:34.621Z,101208.66
2022-09-05T16:29:02.968Z,101217.84
2022-09-05T16:31:39.462Z,101223.91
2022-09-05T16:34:10.367Z,101221.78
2022-09-05T16:37:00.851Z,101238.50
2022-09-05T16:39:39.980Z,101231.28
2022-09-05T16:42:37.425Z,101244.97
2022-09-05T16:45:14.332Z,101250.38
2022-09-05T16:47:51.685Z,101256.66
2022-09-05T16:50:23.911Z,101252.91
2022-09-05T16:52:53.753Z,101251.50
2022-09-05T16:55:29.264Z,101253.44
2022-09-05T16:57:59.722Z,101257.19
2022-09-05T17:00:48.030Z,101253.31
2022-09-05T17:03:37.540Z,101274.09
2022-09-05T17:06:08.045Z,101272.97
2022-09-05T17:08:35.793Z,101275.72
2022-09-05T17:11:29.405Z,101267.28
2022-09-05T17:14:12.284Z,101268.16
2022-09-05T17:16:55.528Z,101275.19
2022-09-05T17:19:26.676Z,101276.31
2022-09-05T17:24:45.146Z,101275.16
2022-09-05T17:29:26.615Z,101288.69
2022-09-05T17:29:27.608Z,101287.28
2022-09-05T17:33:44.861Z,101287.56
2022-09-05T17:36:13.037Z,101283.63
2022-09-05T17:38:50.325Z,101286.72
2022-09-05T17:41:36.233Z,101294.59
2022-09-05T17:44:08.112Z,101301.00
2022-09-05T17:46:44.042Z,101298.22
2022-09-05T17:49:19.581Z,101311.69
2022-09-05T17:51:51.952Z,101310.28
2022-09-05T17:54:26.704Z,101313.84
2022-09-05T17:56:54.242Z,101308.25
2022-09-05T17:59:23.156Z,101313.59
2022-09-05T18:02:02.973Z,101322.84
2022-09-05T18:04:40.077Z,101313.59
2022-09-05T18:07:19.685Z,101320.81
2022-09-05T18:10:12.842Z,101320.78
2022-09-05T18:15:40.263Z,101324.47
2022-09-05T18:18:16.912Z,101329.19
2022-09-05T18:21:21.709Z,101328.97
2022-09-05T18:24:00.757Z,101322.78
2022-09-05T18:26:28.345Z,101313.69
2022-09-05T18:28:55.740Z,101319.47
2022-09-05T18:31:51.148Z,101314.75
2022-09-05T18:34:19.423Z,101312.38
2022-09-05T18:36:48.805Z,101314.00
2022-09-05T18:39:25.782Z,101302.00
2022-09-05T18:42:07.037Z,101313.19
2022-09-05T18:44:45.650Z,101303.91
2022-09-05T18:47:33.491Z,101306.16
2022-09-05T18:50:25.235Z,101299.72
2022-09-05T18:52:49.746Z,101312.56
2022-09-05T18:56:13.855Z,101299.38
2022-09-05T18:58:26.661Z,101309.69
2022-09-05T19:00:54.341Z,101299.63
2022-09-05T19:03:27.235Z,101299.38
2022-09-05T19:06:35.214Z,101300.72
2022-09-05T19:08:48.313Z,101299.97
2022-09-05T19:11:28.235Z,101297.19
2022-09-05T19:14:12.699Z,101301.38
2022-09-05T19:16:47.695Z,101298.00
2022-09-05T19:19:16.469Z,101288.06
2022-09-05T19:22:14.602Z,101297.03
2022-09-05T19:24:45.616Z,101295.63
2022-09-05T19:33:11.322Z,101290.97
2022-09-05T19:36:57.370Z,101285.13
2022-09-05T19:37:05.619Z,101282.91
2022-09-05T19:37:09.976Z,101290.16
2022-09-05T19:38:55.082Z,101280.25
2022-09-05T19:47:26.033Z,101283.44
2022-09-05T19:47:42.432Z,101279.69
2022-09-05T19:47:51.670Z,101286.22
2022-09-05T19:49:55.987Z,101284.84
2022-09-05T19:52:23.570Z,101287.94
2022-09-05T19:54:51.820Z,101281.25
2022-09-05T19:57:24.520Z,101280.38
2022-09-05T19:59:53.206Z,101292.97
2022-09-05T20:02:24.995Z,101296.59
2022-09-05T20:05:02.896Z,101291.97
2022-09-05T20:07:32.104Z,101293.03
2022-09-05T20:10:01.055Z,101298.78
2022-09-05T20:12:32.812Z,101287.06
2022-09-05T20:15:21.374Z,101289.28
2022-09-05T20:17:52.548Z,101289.84
2022-09-05T20:20:22.603Z,101291.31
2022-09-05T20:22:51.020Z,101286.53
2022-09-05T20:25:36.087Z,101291.81
2022-09-05T20:28:07.166Z,101288.41
2022-09-05T20:30:41.225Z,101286.22
2022-09-05T20:33:16.472Z,101285.38
2022-09-05T20:41:13.987Z,101283.31
2022-09-05T20:43:17.492Z,101279.22
2022-09-05T20:43:30.696Z,101274.06
2022-09-05T20:44:22.374Z,101281.91
2022-09-05T20:51:35.134Z,101278.16
2022-09-05T20:54:08.675Z,101281.31
2022-09-05T20:54:21.741Z,101281.06
2022-09-05T20:55:39.575Z,101277.34
2022-09-05T20:58:09.390Z,101281.78
2022-09-05T21:00:37.828Z,101273.41
2022-09-05T21:03:08.630Z,101272.22
2022-09-05T21:05:38.003Z,101269.56
2022-09-05T21:08:19.614Z,101276.06
2022-09-05T21:10:55.777Z,101271.34
2022-09-05T21:13:34.582Z,101275.38
2022-09-05T21:16:04.471Z,101269.66
2022-09-05T21:18:33.271Z,101271.66
2022-09-05T21:21:02.655Z,101275.13
2022-09-05T21:23:40.727Z,101267.84
2022-09-05T21:26:23.868Z,101266.88
2022-09-05T21:29:03.794Z,101270.94
2022-09-05T21:31:32.048Z,101267.22
2022-09-05T21:34:03.004Z,101270.44
2022-09-05T21:36:35.207Z,101266.00
2022-09-05T21:39:02.679Z,101269.91
2022-09-05T21:41:30.155Z,101265.34
2022-09-05T21:47:34.944Z,101268.84
2022-09-05T21:47:40.213Z,101257.56
2022-09-05T21:49:38.244Z,101256.81
2022-09-05T21:52:06.309Z,101251.59
2022-09-05T21:59:18.199Z,101259.72
2022-09-05T21:59:26.709Z,101254.03
2022-09-05T22:00:13.361Z,101253.66
2022-09-05T22:02:49.370Z,101248.09
2022-09-05T22:05:17.242Z,101254.19
2022-09-05T22:07:44.689Z,101243.72
2022-09-05T22:10:12.171Z,101247.69
2022-09-05T22:12:40.491Z,101251.66
2022-09-05T22:15:27.673Z,101248.19
2022-09-05T22:18:07.670Z,101249.09
2022-09-05T22:20:44.687Z,101247.31
2022-09-05T22:23:12.031Z,101250.22
2022-09-05T22:25:39.517Z,101250.41
2022-09-05T22:28:07.016Z,101248.19
2022-09-05T22:30:37.396Z,101247.72
2022-09-05T22:33:08.047Z,101244.88
2022-09-05T22:35:37.014Z,101242.06
2022-09-05T22:38:10.597Z,101248.22
2022-09-05T22:40:39.157Z,101251.81
2022-09-05T22:43:07.728Z,101257.63
2022-09-05T22:45:35.854Z,101258.06
2022-09-05T22:48:10.023Z,101256.16
2022-09-05T22:50:38.038Z,101254.44
2022-09-05T22:53:07.163Z,101248.47
2022-09-05T22:55:35.896Z,101253.38
2022-09-05T22:58:03.880Z,101255.53
2022-09-05T23:00:34.748Z,101249.91
2022-09-05T23:03:03.650Z,101241.78
2022-09-05T23:05:32.362Z,101242.50
2022-09-05T23:08:00.662Z,101241.16
2022-09-05T23:10:28.171Z,101243.63
2022-09-05T23:12:56.521Z,101240.72
2022-09-05T23:15:26.127Z,101245.59
2022-09-05T23:17:54.546Z,101238.66
2022-09-05T23:20:23.066Z,101244.28
2022-09-05T23:22:50.445Z,101245.53
2022-09-05T23:25:17.924Z,101251.41
2022-09-05T23:27:45.452Z,101249.56
2022-09-05T23:30:13.847Z,101255.44
2022-09-05T23:32:45.026Z,101257.94
2022-09-05T23:35:12.715Z,101257.28
2022-09-05T23:37:44.053Z,101253.53
2022-09-05T23:40:12.208Z,101253.31
2022-09-05T23:42:40.056Z,101255.00
2022-09-05T23:45:08.245Z,101251.03
2022-09-05T23:47:36.271Z,101250.81
2022-09-05T23:50:03.970Z,101245.41
2022-09-05T23:52:31.363Z,101237.88
2022-09-05T23:54:58.846Z,101242.69
2022-09-05T23:57:26.199Z,101246.75
2022-09-05T23:59:53.666Z,101243.97
